createdAt,value
2023-04-18T00:01:57.878Z,74.30
2023-04-18T00:04:26.769Z,74.30
2023-04-18T00:06:55.835Z,74.20
2023-04-18T00:09:25.937Z,74.50
2023-04-18T00:11:54.741Z,74.30
2023-04-18T00:14:23.347Z,75.10
2023-04-18T00:16:54.204Z,74.80
2023-04-18T00:19:22.692Z,74.70
2023-04-18T00:21:54.045Z,74.60
2023-04-18T00:24:22.472Z,74.80
2023-04-18T00:26:50.722Z,74.80
2023-04-18T00:29:18.893Z,75.10
2023-04-18T00:31:47.193Z,75.20
2023-04-18T00:34:16.945Z,74.70
2023-04-18T00:36:46.994Z,74.70
2023-04-18T00:39:15.222Z,74.30
2023-04-18T00:41:44.959Z,74.30
2023-04-18T00:44:13.378Z,73.30
2023-04-18T00:46:41.916Z,73.80
2023-04-18T00:49:10.330Z,73.50
2023-04-18T00:51:41.110Z,73.70
2023-04-18T00:54:11.803Z,74.20
2023-04-18T00:56:41.008Z,74.40
2023-04-18T00:59:11.220Z,74.20
2023-04-18T01:01:41.739Z,73.90
2023-04-18T01:04:10.448Z,74.00
2023-04-18T01:06:40.998Z,75.90
2023-04-18T01:09:09.411Z,75.50
2023-04-18T01:11:37.841Z,75.80
2023-04-18T01:14:07.632Z,75.30
2023-04-18T01:16:39.006Z,75.30
2023-04-18T01:19:07.390Z,75.00
2023-04-18T01:21:37.316Z,74.40
2023-04-18T01:24:11.869Z,74.20
2023-04-18T01:26:44.906Z,74.30
2023-04-18T01:29:13.270Z,74.10
2023-04-18T01:31:42.323Z,74.10
2023-04-18T01:34:10.863Z,73.80
2023-04-18T01:36:41.474Z,73.60
2023-04-18T01:39:14.761Z,74.00
2023-04-18T01:41:43.485Z,74.20
2023-04-18T01:44:12.109Z,76.00
2023-04-18T01:46:41.219Z,77.00
2023-04-18T01:49:10.293Z,77.20
2023-04-18T01:51:39.323Z,77.20
2023-04-18T01:54:07.678Z,78.00
2023-04-18T01:56:37.282Z,78.10
2023-04-18T01:59:05.717Z,77.30
2023-04-18T02:01:34.033Z,75.50
2023-04-18T02:04:02.362Z,75.50
2023-04-18T02:06:30.886Z,74.60
2023-04-18T02:09:01.501Z,75.90
2023-04-18T02:11:29.856Z,76.90
2023-04-18T02:14:00.164Z,77.90
2023-04-18T02:16:28.452Z,76.10
2023-04-18T02:18:56.775Z,74.70
2023-04-18T02:21:25.214Z,73.50
2023-04-18T02:23:53.742Z,72.40
2023-04-18T02:26:23.884Z,72.50
2023-04-18T02:28:52.341Z,72.90
2023-04-18T02:31:22.213Z,74.20
2023-04-18T02:33:50.411Z,74.20
2023-04-18T02:36:19.144Z,74.50
2023-04-18T02:38:47.281Z,74.50
2023-04-18T02:41:19.493Z,74.20
2023-04-18T02:43:48.717Z,74.20
2023-04-18T02:46:18.853Z,75.70
2023-04-18T02:48:50.790Z,77.00
2023-04-18T02:51:24.797Z,78.70
2023-04-18T02:53:55.191Z,78.70
2023-04-18T02:56:24.326Z,78.00
2023-04-18T02:59:17.752Z,76.80
2023-04-18T03:02:03.702Z,75.60
2023-04-18T03:04:34.395Z,74.60
2023-04-18T03:07:05.752Z,74.20
2023-04-18T03:09:37.586Z,74.20
2023-04-18T03:12:15.282Z,74.00
2023-04-18T03:14:44.551Z,74.00
2023-04-18T03:17:15.044Z,74.20
2023-04-18T03:19:49.916Z,74.10
2023-04-18T03:22:21.281Z,74.00
2023-04-18T03:24:56.918Z,73.90
2023-04-18T03:27:40.132Z,73.60
2023-04-18T03:30:10.185Z,73.90
2023-04-18T03:32:42.382Z,74.10
2023-04-18T03:35:12.635Z,74.00
2023-04-18T03:37:41.278Z,73.90
2023-04-18T03:40:12.212Z,73.60
2023-04-18T03:42:41.535Z,73.90
2023-04-18T03:45:12.508Z,74.00
2023-04-18T03:47:41.209Z,74.00
2023-04-18T03:50:10.343Z,73.90
2023-04-18T03:52:41.291Z,74.20
2023-04-18T03:55:11.369Z,74.20
2023-04-18T03:57:41.249Z,74.80
2023-04-18T04:00:13.833Z,74.80
2023-04-18T04:02:44.987Z,74.60
2023-04-18T04:05:20.216Z,75.10
2023-04-18T04:07:50.438Z,74.80
2023-04-18T04:10:19.916Z,75.30
2023-04-18T04:12:49.544Z,75.50
2023-04-18T04:15:18.153Z,76.00
2023-04-18T04:17:52.768Z,76.20
2023-04-18T04:20:24.841Z,77.10
2023-04-18T04:23:02.211Z,76.70
2023-04-18T04:25:34.207Z,76.60
2023-04-18T04:28:08.154Z,76.70
2023-04-18T04:30:46.196Z,76.60
2023-04-18T04:33:14.656Z,76.70
2023-04-18T04:35:43.077Z,76.20
2023-04-18T04:38:13.020Z,75.40
2023-04-18T04:40:46.855Z,74.90
2023-04-18T04:43:15.780Z,75.60
2023-04-18T04:45:46.115Z,76.40
2023-04-18T04:48:14.349Z,76.40
2023-04-18T04:50:43.756Z,77.80
2023-04-18T04:53:14.560Z,77.50
2023-04-18T04:55:42.966Z,76.90
2023-04-18T04:58:11.365Z,76.90
2023-04-18T05:00:58.300Z,76.40
2023-04-18T05:03:26.738Z,76.80
2023-04-18T05:05:55.353Z,76.10
2023-04-18T05:08:25.025Z,76.60
2023-04-18T05:10:53.261Z,76.90
2023-04-18T05:13:21.343Z,75.70
2023-04-18T05:15:49.518Z,76.90
2023-04-18T05:18:17.716Z,76.70
2023-04-18T05:20:45.878Z,76.80
2023-04-18T05:23:14.159Z,76.70
2023-04-18T05:25:44.266Z,77.40
2023-04-18T05:28:12.494Z,79.00
2023-04-18T05:30:41.649Z,78.20
2023-04-18T05:33:10.040Z,79.10
2023-04-18T05:35:38.369Z,79.30
2023-04-18T05:38:06.520Z,79.10
2023-04-18T05:40:35.031Z,78.00
2023-04-18T05:43:04.602Z,78.50
2023-04-18T05:45:32.789Z,79.80
2023-04-18T05:48:01.038Z,82.50
2023-04-18T05:50:29.299Z,81.00
2023-04-18T05:52:59.171Z,80.70
2023-04-18T05:55:27.580Z,81.30
2023-04-18T05:57:55.779Z,81.70
2023-04-18T06:00:25.837Z,82.80
2023-04-18T06:02:54.247Z,82.10
2023-04-18T06:05:22.849Z,81.90
2023-04-18T06:07:51.220Z,80.80
2023-04-18T06:10:19.514Z,81.30
2023-04-18T06:12:47.715Z,81.90
2023-04-18T06:15:15.915Z,81.00
2023-04-18T06:17:45.831Z,81.90
2023-04-18T06:20:14.384Z,81.30
2023-04-18T06:22:42.864Z,80.30
2023-04-18T06:25:11.368Z,81.50
2023-04-18T06:27:39.818Z,82.10
2023-04-18T06:30:09.013Z,83.00
2023-04-18T06:32:37.338Z,82.50
2023-04-18T06:35:07.908Z,82.30
2023-04-18T06:37:36.248Z,82.00
2023-04-18T06:40:04.853Z,82.70
2023-04-18T06:42:33.049Z,82.30
2023-04-18T06:45:01.303Z,82.40
2023-04-18T06:47:30.186Z,83.20
2023-04-18T06:49:58.348Z,84.20
2023-04-18T06:52:27.851Z,86.00
2023-04-18T06:54:55.988Z,86.60
2023-04-18T06:57:24.209Z,85.30
2023-04-18T06:59:52.539Z,86.60
2023-04-18T07:02:20.755Z,88.00
2023-04-18T07:04:49.316Z,87.90
2023-04-18T07:07:17.743Z,87.30
2023-04-18T07:09:47.869Z,86.70
2023-04-18T07:12:16.095Z,85.50
2023-04-18T07:14:44.200Z,85.10
2023-04-18T07:17:12.487Z,84.80
2023-04-18T07:19:41.647Z,85.00
2023-04-18T07:22:09.813Z,85.00
2023-04-18T07:24:39.236Z,84.10
2023-04-18T07:27:09.687Z,83.50
2023-04-18T07:29:37.884Z,83.70
2023-04-18T07:32:08.129Z,83.00
2023-04-18T07:34:37.516Z,84.00
2023-04-18T07:37:06.113Z,84.10
2023-04-18T07:39:36.143Z,85.00
2023-04-18T07:42:04.654Z,84.20
2023-04-18T07:44:36.804Z,83.50
2023-04-18T07:47:09.878Z,85.30
2023-04-18T07:49:38.366Z,85.30
2023-04-18T07:52:06.949Z,85.20
2023-04-18T07:54:35.220Z,84.20
2023-04-18T07:57:03.460Z,84.00
2023-04-18T07:59:33.024Z,83.40
2023-04-18T08:02:01.230Z,84.00
2023-04-18T08:04:30.626Z,83.50
2023-04-18T08:06:59.002Z,83.40
2023-04-18T08:09:27.170Z,83.10
2023-04-18T08:11:57.854Z,83.40
2023-04-18T08:14:26.385Z,83.10
2023-04-18T08:16:55.990Z,83.10
2023-04-18T08:19:24.449Z,83.80
2023-04-18T08:21:52.861Z,82.70
2023-04-18T08:24:20.971Z,82.20
2023-04-18T08:26:49.117Z,83.30
2023-04-18T08:29:17.264Z,82.60
2023-04-18T08:31:46.047Z,83.40
2023-04-18T08:34:15.553Z,84.20
2023-04-18T08:36:46.955Z,84.30
2023-04-18T08:39:15.229Z,81.70
2023-04-18T08:41:44.467Z,82.40
2023-04-18T08:44:13.384Z,83.00
2023-04-18T08:46:41.779Z,82.50
2023-04-18T08:49:11.806Z,80.90
2023-04-18T08:51:44.302Z,79.50
2023-04-18T08:54:12.776Z,79.90
2023-04-18T08:56:41.055Z,79.30
2023-04-18T08:59:09.587Z,78.70
2023-04-18T09:02:01.958Z,80.30
2023-04-18T09:04:38.472Z,79.30
2023-04-18T09:07:10.300Z,79.90
2023-04-18T09:09:46.183Z,80.20
2023-04-18T09:12:15.704Z,79.10
2023-04-18T09:14:45.609Z,79.60
2023-04-18T09:17:16.353Z,79.20
2023-04-18T09:19:50.405Z,79.90
2023-04-18T09:22:20.008Z,81.30
2023-04-18T09:24:55.411Z,80.90
2023-04-18T09:27:24.550Z,80.90
2023-04-18T09:29:55.900Z,81.60
2023-04-18T09:32:29.139Z,82.60
2023-04-18T09:35:04.041Z,84.00
2023-04-18T09:37:34.629Z,78.70
2023-04-18T09:40:16.607Z,82.70
2023-04-18T09:42:44.771Z,81.30
2023-04-18T09:45:13.647Z,80.70
2023-04-18T09:47:41.891Z,80.70
2023-04-18T09:50:11.528Z,81.60
2023-04-18T09:52:42.569Z,82.00
2023-04-18T09:55:12.589Z,80.70
2023-04-18T09:57:43.845Z,80.10
2023-04-18T10:00:20.185Z,80.30
2023-04-18T10:02:53.974Z,80.10
2023-04-18T10:05:26.691Z,81.50
2023-04-18T10:07:57.183Z,80.10
2023-04-18T10:10:25.773Z,81.50
2023-04-18T10:12:56.395Z,81.60
2023-04-18T10:15:27.006Z,79.60
2023-04-18T10:18:04.309Z,81.20
2023-04-18T10:20:35.503Z,79.60
2023-04-18T10:23:36.984Z,79.10
2023-04-18T10:26:06.071Z,80.50
2023-04-18T10:28:54.670Z,78.20
2023-04-18T10:31:24.351Z,77.00
2023-04-18T10:36:28.297Z,77.40
2023-04-18T10:39:04.192Z,75.50
2023-04-18T10:41:33.537Z,76.90
2023-04-18T10:44:22.366Z,76.50
2023-04-18T10:47:23.918Z,74.60
2023-04-18T10:49:58.012Z,76.60
2023-04-18T10:52:26.874Z,75.70
2023-04-18T10:55:05.520Z,73.80
2023-04-18T10:57:42.472Z,75.70
2023-04-18T11:00:13.738Z,76.20
2023-04-18T11:02:48.875Z,72.60
2023-04-18T11:05:21.366Z,73.30
2023-04-18T11:07:50.855Z,74.80
2023-04-18T11:10:21.583Z,75.00
2023-04-18T11:12:50.108Z,73.60
2023-04-18T11:15:21.653Z,73.40
2023-04-18T11:17:58.214Z,74.00
2023-04-18T11:20:27.081Z,72.10
2023-04-18T11:22:58.364Z,72.90
2023-04-18T11:25:30.190Z,72.80
2023-04-18T11:28:01.440Z,72.40
2023-04-18T11:30:36.934Z,73.80
2023-04-18T11:33:07.659Z,73.50
2023-04-18T11:35:39.531Z,72.90
2023-04-18T11:38:08.052Z,72.50
2023-04-18T11:40:38.173Z,73.30
2023-04-18T11:43:10.045Z,72.80
2023-04-18T11:45:38.366Z,73.40
2023-04-18T11:48:06.914Z,72.80
2023-04-18T11:50:38.338Z,71.40
2023-04-18T11:53:06.574Z,71.40
2023-04-18T11:55:34.707Z,72.10
2023-04-18T11:58:04.589Z,71.20
2023-04-18T12:00:35.409Z,71.40
2023-04-18T12:03:05.450Z,72.40
2023-04-18T12:05:36.303Z,71.30
2023-04-18T12:08:08.308Z,70.20
2023-04-18T12:10:37.033Z,69.70
2023-04-18T12:13:09.956Z,71.90
2023-04-18T12:15:40.566Z,73.70
2023-04-18T12:18:09.441Z,69.00
2023-04-18T12:20:39.291Z,70.20
2023-04-18T12:23:08.047Z,67.10
2023-04-18T12:25:36.483Z,68.60
2023-04-18T12:28:14.775Z,68.00
2023-04-18T12:30:44.427Z,65.70
2023-04-18T12:33:12.701Z,65.30
2023-04-18T12:35:41.323Z,65.50
2023-04-18T12:38:09.496Z,64.90
2023-04-18T12:40:40.811Z,64.80
2023-04-18T12:43:10.258Z,67.40
2023-04-18T12:45:38.473Z,68.20
2023-04-18T12:48:08.486Z,70.10
2023-04-18T12:50:37.054Z,71.10
2023-04-18T12:53:06.347Z,69.20
2023-04-18T12:55:34.565Z,70.00
2023-04-18T12:58:02.838Z,67.30
2023-04-18T13:00:32.734Z,68.40
2023-04-18T13:03:01.566Z,70.10
2023-04-18T13:05:33.438Z,70.90
2023-04-18T13:08:15.231Z,68.20
2023-04-18T13:10:45.475Z,67.80
2023-04-18T13:13:13.939Z,70.00
2023-04-18T13:15:42.599Z,68.90
2023-04-18T13:18:10.784Z,68.90
2023-04-18T13:20:40.705Z,70.30
2023-04-18T13:23:08.804Z,67.90
2023-04-18T13:25:37.035Z,66.90
2023-04-18T13:28:05.657Z,67.40
2023-04-18T13:30:35.795Z,66.30
2023-04-18T13:33:04.077Z,66.90
2023-04-18T13:35:32.349Z,68.20
2023-04-18T13:38:01.898Z,66.20
2023-04-18T13:40:30.122Z,65.00
2023-04-18T13:42:58.761Z,66.60
2023-04-18T13:45:27.482Z,65.70
2023-04-18T13:47:55.834Z,67.30
2023-04-18T13:50:24.510Z,64.50
2023-04-18T13:52:54.476Z,66.50
2023-04-18T13:55:24.243Z,65.90
2023-04-18T13:57:52.457Z,63.10
2023-04-18T14:00:21.688Z,65.00
2023-04-18T14:02:50.234Z,65.70
2023-04-18T14:05:18.544Z,61.50
2023-04-18T14:07:48.701Z,64.40
2023-04-18T14:10:16.967Z,67.00
2023-04-18T14:12:46.882Z,61.30
2023-04-18T14:15:14.969Z,54.10
2023-04-18T14:17:45.508Z,55.80
2023-04-18T14:20:15.703Z,56.60
2023-04-18T14:22:43.824Z,54.80
2023-04-18T14:25:12.156Z,55.80
2023-04-18T14:27:40.470Z,55.70
2023-04-18T14:30:11.796Z,56.80
2023-04-18T14:32:39.966Z,55.10
2023-04-18T14:35:09.233Z,57.90
2023-04-18T14:37:37.395Z,58.20
2023-04-18T14:40:08.243Z,56.50
2023-04-18T14:42:36.363Z,53.60
2023-04-18T14:45:05.163Z,51.10
2023-04-18T14:47:34.932Z,57.40
2023-04-18T14:50:03.104Z,61.20
2023-04-18T14:52:31.179Z,59.70
2023-04-18T14:54:59.611Z,63.00
2023-04-18T14:57:30.237Z,62.30
2023-04-18T14:59:58.404Z,62.50
2023-04-18T15:02:26.774Z,60.10
2023-04-18T15:04:56.679Z,58.60
2023-04-18T15:07:24.997Z,59.70
2023-04-18T15:09:53.262Z,59.60
2023-04-18T15:12:21.348Z,59.70
2023-04-18T15:14:49.756Z,58.40
2023-04-18T15:17:17.831Z,54.50
2023-04-18T15:19:45.936Z,57.60
2023-04-18T15:22:15.552Z,54.50
2023-04-18T15:24:43.668Z,51.80
2023-04-18T15:27:12.252Z,50.20
2023-04-18T15:29:40.948Z,51.80
2023-04-18T15:32:09.811Z,51.30
2023-04-18T15:34:37.967Z,50.20
2023-04-18T15:37:06.454Z,49.80
2023-04-18T15:39:36.143Z,51.60
2023-04-18T15:42:04.354Z,46.20
2023-04-18T15:44:32.433Z,47.80
2023-04-18T15:47:01.854Z,43.20
2023-04-18T15:49:30.020Z,40.90
2023-04-18T15:51:58.169Z,43.10
2023-04-18T15:54:26.346Z,42.50
2023-04-18T15:56:56.204Z,43.90
2023-04-18T15:59:24.558Z,44.00
2023-04-18T16:01:52.933Z,44.40
2023-04-18T16:04:21.320Z,46.30
2023-04-18T16:06:49.461Z,46.40
2023-04-18T16:09:17.586Z,45.60
2023-04-18T16:11:45.834Z,44.40
2023-04-18T16:14:15.451Z,46.70
2023-04-18T16:16:43.602Z,42.70
2023-04-18T16:19:12.052Z,41.90
2023-04-18T16:21:40.219Z,42.90
2023-04-18T16:24:08.723Z,42.00
2023-04-18T16:26:36.785Z,43.80
2023-04-18T16:29:04.864Z,41.50
2023-04-18T16:31:34.605Z,41.50
2023-04-18T16:34:03.156Z,43.00
2023-04-18T16:36:34.191Z,44.10
2023-04-18T16:39:02.323Z,41.00
2023-04-18T16:41:30.788Z,43.30
2023-04-18T16:43:58.856Z,41.60
2023-04-18T16:46:31.306Z,42.10
2023-04-18T16:49:01.489Z,42.70
2023-04-18T16:51:29.912Z,39.80
2023-04-18T16:53:58.052Z,40.00
2023-04-18T16:56:26.293Z,42.50
2023-04-18T16:58:54.394Z,40.10
2023-04-18T17:01:22.486Z,42.20
2023-04-18T17:03:50.867Z,42.10
2023-04-18T17:06:22.652Z,41.50
2023-04-18T17:08:53.392Z,41.50
2023-04-18T17:11:21.752Z,40.40
2023-04-18T17:13:51.205Z,40.20
2023-04-18T17:16:19.484Z,41.70
2023-04-18T17:18:47.639Z,41.80
2023-04-18T17:21:15.728Z,42.30
2023-04-18T17:23:45.677Z,39.60
2023-04-18T17:26:13.799Z,40.40
2023-04-18T17:28:41.866Z,42.20
2023-04-18T17:31:10.021Z,42.60
2023-04-18T17:33:38.412Z,41.10
2023-04-18T17:36:07.163Z,41.80
2023-04-18T17:38:35.640Z,42.90
2023-04-18T17:41:06.233Z,43.00
2023-04-18T17:43:34.318Z,42.70
2023-04-18T17:46:04.019Z,40.20
2023-04-18T17:48:32.218Z,41.30
2023-04-18T17:51:00.422Z,41.70
2023-04-18T17:53:30.215Z,43.10
2023-04-18T17:56:03.504Z,42.30
2023-04-18T17:58:33.074Z,41.90
2023-04-18T18:01:01.214Z,42.70
2023-04-18T18:03:29.645Z,42.60
2023-04-18T18:05:58.413Z,42.90
2023-04-18T18:08:26.669Z,42.90
2023-04-18T18:10:54.782Z,42.00
2023-04-18T18:13:22.917Z,42.30
2023-04-18T18:15:52.398Z,42.20
2023-04-18T18:18:29.723Z,42.10
2023-04-18T18:20:58.207Z,41.70
2023-04-18T18:23:26.687Z,43.10
2023-04-18T18:25:54.858Z,43.70
2023-04-18T18:28:23.027Z,43.20
2023-04-18T18:30:52.593Z,44.00
2023-04-18T18:33:20.768Z,44.10
2023-04-18T18:35:49.164Z,44.90
2023-04-18T18:38:17.749Z,44.50
2023-04-18T18:40:46.111Z,43.30
2023-04-18T18:43:14.410Z,45.80
2023-04-18T18:45:42.568Z,46.30
2023-04-18T18:48:12.166Z,45.30
2023-04-18T18:50:41.781Z,46.00
2023-04-18T18:53:10.109Z,46.50
2023-04-18T18:55:38.219Z,46.10
2023-04-18T18:58:07.929Z,46.10
2023-04-18T19:00:36.091Z,46.10
2023-04-18T19:03:04.707Z,45.60
2023-04-18T19:05:34.699Z,46.40
2023-04-18T19:08:04.845Z,46.00
2023-04-18T19:10:33.057Z,46.10
2023-04-18T19:13:22.628Z,47.20
2023-04-18T19:16:13.993Z,48.20
2023-04-18T19:19:02.554Z,47.60
2023-04-18T19:21:52.441Z,49.40
2023-04-18T19:24:20.705Z,50.30
2023-04-18T19:26:48.847Z,49.30
2023-04-18T19:29:18.085Z,49.10
2023-04-18T19:31:46.516Z,50.00
2023-04-18T19:34:14.826Z,49.90
2023-04-18T19:36:43.176Z,50.10
2023-04-18T19:39:12.893Z,51.40
2023-04-18T19:41:41.525Z,50.10
2023-04-18T19:44:09.700Z,50.90
2023-04-18T19:46:37.922Z,51.70
2023-04-18T19:49:06.040Z,52.00
2023-04-18T19:51:34.311Z,51.80
2023-04-18T19:54:02.522Z,52.80
2023-04-18T19:56:31.957Z,52.60
2023-04-18T19:59:00.138Z,53.10
2023-04-18T20:01:28.244Z,53.10
2023-04-18T20:03:58.687Z,53.40
2023-04-18T20:06:28.016Z,55.20
2023-04-18T20:08:56.520Z,54.10
2023-04-18T20:11:25.583Z,53.90
2023-04-18T20:13:55.705Z,53.50
2023-04-18T20:16:24.482Z,53.40
2023-04-18T20:18:54.844Z,54.40
2023-04-18T20:21:23.271Z,55.10
2023-04-18T20:23:51.386Z,54.90
2023-04-18T20:26:19.762Z,57.30
2023-04-18T20:28:48.517Z,57.70
2023-04-18T20:31:19.479Z,56.90
2023-04-18T20:33:47.742Z,55.20
2023-04-18T20:36:17.552Z,54.80
2023-04-18T20:38:46.066Z,55.40
2023-04-18T20:41:15.074Z,55.80
2023-04-18T20:43:43.562Z,58.10
2023-04-18T20:46:14.199Z,58.70
2023-04-18T20:48:44.408Z,59.20
2023-04-18T20:51:12.601Z,57.80
2023-04-18T20:53:40.866Z,57.70
2023-04-18T20:56:08.996Z,57.80
2023-04-18T20:58:37.692Z,58.00
2023-04-18T21:01:07.135Z,57.10
2023-04-18T21:03:35.769Z,56.70
2023-04-18T21:06:05.674Z,57.60
2023-04-18T21:08:35.161Z,57.80
2023-04-18T21:11:03.496Z,57.60
2023-04-18T21:13:32.731Z,57.80
2023-04-18T21:16:03.430Z,57.90
2023-04-18T21:18:31.936Z,58.60
2023-04-18T21:20:59.963Z,58.30
2023-04-18T21:23:30.044Z,58.40
2023-04-18T21:25:58.150Z,58.50
2023-04-18T21:28:26.356Z,59.20
2023-04-18T21:30:54.502Z,59.40
2023-04-18T21:33:23.926Z,59.40
2023-04-18T21:35:52.112Z,59.50
2023-04-18T21:38:25.478Z,59.80
2023-04-18T21:40:55.060Z,59.60
2023-04-18T21:43:23.121Z,59.10
2023-04-18T21:45:51.348Z,59.20
2023-04-18T21:48:19.504Z,60.80
2023-04-18T21:50:47.624Z,60.20
2023-04-18T21:53:15.690Z,60.20
2023-04-18T21:55:43.808Z,60.50
2023-04-18T21:58:13.488Z,60.90
2023-04-18T22:00:41.711Z,61.60
2023-04-18T22:03:10.101Z,61.70
2023-04-18T22:05:39.065Z,61.80
2023-04-18T22:08:07.328Z,62.50
2023-04-18T22:10:36.247Z,62.20
2023-04-18T22:13:05.425Z,62.30
2023-04-18T22:15:39.222Z,62.50
2023-04-18T22:18:08.494Z,63.30
2023-04-18T22:20:37.332Z,63.70
2023-04-18T22:23:07.062Z,64.10
2023-04-18T22:25:35.237Z,64.40
2023-04-18T22:28:03.961Z,65.10
2023-04-18T22:30:34.514Z,65.00
2023-04-18T22:33:03.491Z,65.20
2023-04-18T22:35:32.211Z,65.40
2023-04-18T22:38:00.611Z,65.30
2023-04-18T22:40:29.709Z,65.70
2023-04-18T22:42:58.888Z,65.70
2023-04-18T22:45:27.642Z,66.90
2023-04-18T22:47:57.944Z,67.00
2023-04-18T22:50:27.382Z,67.10
2023-04-18T22:52:55.961Z,68.30
2023-04-18T22:55:24.586Z,67.70
2023-04-18T22:57:53.111Z,67.30
2023-04-18T23:00:21.756Z,68.40
2023-04-18T23:02:50.784Z,67.60
2023-04-18T23:05:20.578Z,66.90
2023-04-18T23:07:48.751Z,68.90
2023-04-18T23:10:16.912Z,69.30
2023-04-18T23:12:45.072Z,68.20
2023-04-18T23:15:13.783Z,67.80
2023-04-18T23:17:42.203Z,66.60
2023-04-18T23:20:12.483Z,66.40
2023-04-18T23:22:42.340Z,66.40
2023-04-18T23:25:10.837Z,66.20
2023-04-18T23:27:39.234Z,66.10
2023-04-18T23:30:09.191Z,66.40
2023-04-18T23:32:37.454Z,66.40
2023-04-18T23:35:06.586Z,67.00
2023-04-18T23:37:34.954Z,67.00
2023-04-18T23:40:06.694Z,67.50
2023-04-18T23:42:35.828Z,67.00
2023-04-18T23:45:05.695Z,66.60
2023-04-18T23:47:33.895Z,66.70
2023-04-18T23:50:02.446Z,67.50
2023-04-18T23:52:30.689Z,67.10
2023-04-18T23:55:01.320Z,67.30
2023-04-18T23:57:30.900Z,68.10
2023-04-18T23:59:59.112Z,68.80
